Time;durP1;ratioP1;P1;durP2;ratioP2;P2;SDS_P1;SDS_P2;PMS_P1;PMS_P2;Temp;Humidity;BMP_temperature;BMP_pressure;BME280_temperature;BME280_humidity;BME280_pressure;Samples;Min_cycle;Max_cycle;Signal;HPM_P1;HPM_P2
2023/03/01 00:00:13;;;;;;;;;;;;;;;-3.63;74.81;101725.26;106429;1278;22496;-57
2023/03/01 00:03:02;;;;;;;;;;;;;;;-3.65;75.19;101728.70;106186;1278;22493;-55
2023/03/01 00:05:31;;;;;;;;;;;;;;;-3.67;75.01;101729.11;106240;1278;22516;-57
2023/03/01 00:08:01;;;;;;;;;;;;;;;-3.71;75.22;101732.88;106330;1278;23707;-57
2023/03/01 00:10:30;;;;;;;;;;;;;;;-3.70;75.29;101735.08;106205;1274;24279;-57
2023/03/01 00:12:59;;;;;;;;;;;;;;;-3.74;75.33;101736.14;106200;1278;25332;-56
2023/03/01 00:15:28;;;;;;;;;;;;;;;-3.77;75.30;101727.23;106189;1278;22501;-58
2023/03/01 00:17:57;;;;;;;;;;;;;;;-3.77;75.32;101726.00;106195;1265;24471;-56
2023/03/01 00:20:26;;;;;;;;;;;;;;;-3.78;75.15;101721.61;106210;1278;22517;-57
2023/03/01 00:22:56;;;;;;;;;;;;;;;-3.82;75.29;101720.64;106344;1272;22513;-57
2023/03/01 00:25:25;;;;;;;;;;;;;;;-3.86;75.26;101725.51;106199;1274;22501;-56
2023/03/01 00:27:54;;;;;;;;;;;;;;;-3.89;75.39;101723.15;106234;1267;22502;-56
2023/03/01 00:30:23;;;;;;;;;;;;;;;-3.92;75.73;101726.19;106193;1275;22525;-57
2023/03/01 00:32:53;;;;;;;;;;;;;;;-3.94;75.72;101720.81;106388;1279;22492;-57
2023/03/01 00:35:22;;;;;;;;;;;;;;;-3.97;75.71;101719.19;106142;1278;22628;-56
2023/03/01 00:37:57;;;;;;;;;;;;;;;-3.99;76.01;101714.92;106318;1278;22580;-57
2023/03/01 00:40:27;;;;;;;;;;;;;;;-3.99;75.99;101709.40;106412;1272;22497;-57
2023/03/01 00:42:56;;;;;;;;;;;;;;;-4.05;75.80;101702.42;106291;1278;24365;-57
2023/03/01 00:45:26;;;;;;;;;;;;;;;-4.05;75.87;101699.92;106120;1268;22648;-56
2023/03/01 00:47:55;;;;;;;;;;;;;;;-4.05;75.88;101694.39;106392;1278;22552;-56
2023/03/01 00:50:25;;;;;;;;;;;;;;;-4.08;75.81;101695.48;106422;1256;22503;-57
2023/03/01 00:52:55;;;;;;;;;;;;;;;-4.10;75.97;101697.45;106372;1278;24382;-56
2023/03/01 00:55:25;;;;;;;;;;;;;;;-4.12;75.99;101694.60;106327;1274;24272;-55
2023/03/01 00:57:54;;;;;;;;;;;;;;;-4.14;75.91;101692.19;106158;1275;23431;-57
2023/03/01 01:00:23;;;;;;;;;;;;;;;-4.16;76.05;101695.42;106226;1278;22614;-56
2023/03/01 01:02:52;;;;;;;;;;;;;;;-4.14;75.97;101697.41;106389;1279;24475;-55
2023/03/01 01:05:22;;;;;;;;;;;;;;;-4.13;75.93;101695.76;106140;1268;24272;-54
2023/03/01 01:07:51;;;;;;;;;;;;;;;-4.15;75.70;101688.05;106192;1278;22504;-57
2023/03/01 01:10:20;;;;;;;;;;;;;;;-4.19;75.73;101684.71;106125;1277;22493;-55
2023/03/01 01:12:49;;;;;;;;;;;;;;;-4.24;75.83;101681.04;106192;1278;24356;-57
2023/03/01 01:15:19;;;;;;;;;;;;;;;-4.29;75.83;101686.98;106251;1278;24248;-54
2023/03/01 01:17:48;;;;;;;;;;;;;;;-4.32;75.92;101688.21;106190;1278;22579;-56
2023/03/01 01:20:18;;;;;;;;;;;;;;;-4.34;76.85;101689.87;106240;1265;25231;-57
2023/03/01 01:22:47;;;;;;;;;;;;;;;-4.34;76.89;101689.48;106256;1278;24235;-56
2023/03/01 01:25:16;;;;;;;;;;;;;;;-4.38;76.68;101677.27;106175;1278;23864;-57
2023/03/01 01:27:45;;;;;;;;;;;;;;;-4.44;76.45;101666.05;106243;1278;22559;-58
2023/03/01 01:30:15;;;;;;;;;;;;;;;-4.44;76.71;101664.58;106207;1272;25277;-55
2023/03/01 01:32:44;;;;;;;;;;;;;;;-4.45;76.71;101664.00;106362;1274;22501;-57
2023/03/01 01:35:13;;;;;;;;;;;;;;;-4.46;76.63;101663.65;106157;1278;24294;-57
2023/03/01 01:37:43;;;;;;;;;;;;;;;-4.50;76.50;101670.30;106205;1278;24038;-56
2023/03/01 01:40:13;;;;;;;;;;;;;;;-4.53;76.73;101665.86;106288;1273;22683;-57
2023/03/01 01:42:42;;;;;;;;;;;;;;;-4.52;76.85;101662.00;106294;1275;22595;-57
2023/03/01 01:45:31;;;;;;;;;;;;;;;-4.51;76.78;101655.31;106208;1278;22501;-57
2023/03/01 01:48:03;;;;;;;;;;;;;;;-4.50;76.71;101656.82;106097;1278;22864;-55
2023/03/01 01:50:37;;;;;;;;;;;;;;;-4.49;76.75;101659.51;106317;1264;24077;-54
2023/03/01 01:53:10;;;;;;;;;;;;;;;-4.52;76.61;101651.96;106200;1269;25441;-57
2023/03/01 01:55:42;;;;;;;;;;;;;;;-4.55;76.42;101646.49;106295;1278;24263;-55
2023/03/01 01:58:15;;;;;;;;;;;;;;;-4.57;76.51;101646.89;106270;1273;23202;-57
2023/03/01 02:00:44;;;;;;;;;;;;;;;-4.60;76.53;101640.41;106345;1278;24246;-55
2023/03/01 02:03:17;;;;;;;;;;;;;;;-4.64;76.44;101638.64;106190;1278;25340;-54
2023/03/01 02:05:48;;;;;;;;;;;;;;;-4.69;76.40;101633.19;106169;1279;24286;-54
2023/03/01 02:08:19;;;;;;;;;;;;;;;-4.72;76.58;101634.83;106136;1278;22514;-56
2023/03/01 02:10:49;;;;;;;;;;;;;;;-4.77;76.51;101643.33;106242;1278;22923;-56
2023/03/01 02:13:18;;;;;;;;;;;;;;;-4.79;77.74;101642.61;106344;1268;24391;-57
2023/03/01 02:15:47;;;;;;;;;;;;;;;-4.84;77.09;101637.64;106213;1278;22715;-57
2023/03/01 02:18:18;;;;;;;;;;;;;;;-4.86;77.23;101643.58;106356;1278;24237;-54
2023/03/01 02:20:57;;;;;;;;;;;;;;;-4.85;77.40;101649.68;106281;1278;25367;-56
2023/03/01 02:23:26;;;;;;;;;;;;;;;-4.82;77.25;101648.11;106285;1278;22502;-56
2023/03/01 02:25:58;;;;;;;;;;;;;;;-4.84;76.96;101646.11;106252;1278;22864;-57
2023/03/01 02:28:30;;;;;;;;;;;;;;;-4.89;76.84;101641.75;106230;1278;22511;-55
2023/03/01 02:33:48;;;;;;;;;;;;;;;-4.95;76.94;101648.41;106187;1275;24254;-57
2023/03/01 02:36:19;;;;;;;;;;;;;;;-4.97;76.94;101652.02;106299;1275;22765;-54
2023/03/01 02:38:49;;;;;;;;;;;;;;;-5.01;76.93;101649.61;106188;1279;22577;-55
2023/03/01 02:41:19;;;;;;;;;;;;;;;-5.02;77.09;101653.10;106287;1272;25872;-57
2023/03/01 02:43:49;;;;;;;;;;;;;;;-5.00;77.01;101654.55;106222;1278;22548;-55
2023/03/01 02:46:19;;;;;;;;;;;;;;;-5.00;77.04;101656.41;106269;1272;24389;-57
2023/03/01 02:48:50;;;;;;;;;;;;;;;-4.99;77.16;101657.01;106211;1278;22505;-57
2023/03/01 02:51:26;;;;;;;;;;;;;;;-4.98;77.20;101654.95;106219;1278;25411;-57
2023/03/01 02:53:59;;;;;;;;;;;;;;;-4.96;77.17;101658.41;106309;1269;24277;-57
2023/03/01 02:56:29;;;;;;;;;;;;;;;-4.95;77.01;101654.48;106403;1264;22522;-55
2023/03/01 02:59:00;;;;;;;;;;;;;;;-4.98;76.70;101653.29;106226;1278;25258;-57
2023/03/01 03:01:36;;;;;;;;;;;;;;;-5.04;76.87;101655.73;106196;1278;22657;-55
2023/03/01 03:04:06;;;;;;;;;;;;;;;-5.06;77.20;101656.79;106266;1273;22502;-55
2023/03/01 03:06:35;;;;;;;;;;;;;;;-5.07;77.08;101656.17;106316;1278;23076;-58
2023/03/01 03:09:05;;;;;;;;;;;;;;;-5.08;77.67;101653.98;106193;1278;24260;-57
2023/03/01 03:11:36;;;;;;;;;;;;;;;-5.08;77.86;101659.11;106198;1278;22692;-55
2023/03/01 03:14:12;;;;;;;;;;;;;;;-5.09;77.54;101657.00;106240;1278;24313;-56
2023/03/01 03:16:43;;;;;;;;;;;;;;;-5.13;77.16;101656.62;106303;1278;22487;-58
2023/03/01 03:19:12;;;;;;;;;;;;;;;-5.18;77.28;101656.60;106320;1277;24211;-58
2023/03/01 03:21:42;;;;;;;;;;;;;;;-5.19;77.34;101649.25;106151;1278;22849;-57
2023/03/01 03:24:11;;;;;;;;;;;;;;;-5.24;77.03;101643.35;106247;1271;22513;-58
2023/03/01 03:26:41;;;;;;;;;;;;;;;-5.30;77.00;101639.56;106223;1278;22502;-55
2023/03/01 03:29:10;;;;;;;;;;;;;;;-5.34;77.28;101636.79;106223;1264;22675;-57
2023/03/01 03:31:39;;;;;;;;;;;;;;;-5.34;77.63;101640.56;106151;1278;24390;-55
2023/03/01 03:34:17;;;;;;;;;;;;;;;-5.34;77.70;101635.29;106175;1278;24398;-56
2023/03/01 03:36:46;;;;;;;;;;;;;;;-5.35;77.72;101635.27;106250;1278;24362;-57
2023/03/01 03:39:17;;;;;;;;;;;;;;;-5.34;77.77;101630.86;106244;1278;22511;-56
2023/03/01 03:41:46;;;;;;;;;;;;;;;-5.32;77.92;101627.98;106262;1271;25279;-56
2023/03/01 03:44:16;;;;;;;;;;;;;;;-5.32;77.56;101627.13;106277;1275;24291;-58
2023/03/01 03:46:45;;;;;;;;;;;;;;;-5.35;77.42;101627.55;106371;1278;22711;-55
2023/03/01 03:49:14;;;;;;;;;;;;;;;-5.39;77.56;101625.80;106292;1278;24196;-57
2023/03/01 03:51:46;;;;;;;;;;;;;;;-5.40;77.86;101625.54;106169;1277;22841;-57
2023/03/01 03:54:15;;;;;;;;;;;;;;;-5.38;78.10;101621.27;106202;1278;22740;-55
2023/03/01 03:56:44;;;;;;;;;;;;;;;-5.38;77.93;101620.64;106241;1278;22653;-57
2023/03/01 03:59:13;;;;;;;;;;;;;;;-5.39;78.00;101622.92;106211;1278;22583;-56
2023/03/01 04:01:44;;;;;;;;;;;;;;;-5.40;78.11;101616.69;106244;1278;22512;-56
2023/03/01 04:04:13;;;;;;;;;;;;;;;-5.40;77.94;101611.30;106244;1275;25508;-55
2023/03/01 04:06:42;;;;;;;;;;;;;;;-5.43;77.68;101606.92;106216;1278;22566;-57
2023/03/01 04:09:11;;;;;;;;;;;;;;;-5.47;77.56;101605.95;106225;1264;24922;-56
2023/03/01 04:11:41;;;;;;;;;;;;;;;-5.50;77.80;101607.79;106221;1278;22507;-57
2023/03/01 04:14:10;;;;;;;;;;;;;;;-5.51;77.70;101606.73;106177;1264;22878;-57
2023/03/01 04:16:40;;;;;;;;;;;;;;;-5.52;77.87;101608.70;106165;1278;22715;-57
2023/03/01 04:19:09;;;;;;;;;;;;;;;-5.54;77.77;101610.92;106303;1278;23031;-55
2023/03/01 04:21:38;;;;;;;;;;;;;;;-5.56;77.87;101611.45;106123;1275;24444;-56
2023/03/01 04:24:09;;;;;;;;;;;;;;;-5.55;78.01;101610.41;106257;1264;25511;-57
2023/03/01 04:26:38;;;;;;;;;;;;;;;-5.56;77.97;101603.85;106442;1267;22629;-55
2023/03/01 04:29:07;;;;;;;;;;;;;;;-5.55;78.04;101608.70;106424;1268;22511;-57
2023/03/01 04:31:37;;;;;;;;;;;;;;;-5.54;77.91;101608.27;106292;1278;22614;-54
2023/03/01 04:34:06;;;;;;;;;;;;;;;-5.53;77.98;101608.90;106272;1271;25281;-58
2023/03/01 04:36:35;;;;;;;;;;;;;;;-5.56;77.85;101607.02;106212;1278;22601;-58
2023/03/01 04:39:11;;;;;;;;;;;;;;;-5.59;77.83;101605.98;106253;1274;22508;-55
2023/03/01 04:41:42;;;;;;;;;;;;;;;-5.58;78.01;101601.45;106264;1278;24038;-55
2023/03/01 04:44:12;;;;;;;;;;;;;;;-5.59;77.61;101604.03;106244;1278;25474;-55
2023/03/01 04:46:41;;;;;;;;;;;;;;;-5.68;77.53;101603.61;106331;1278;24363;-57
2023/03/01 04:49:10;;;;;;;;;;;;;;;-5.70;77.73;101602.73;106246;1278;22501;-57
2023/03/01 04:51:40;;;;;;;;;;;;;;;-5.72;78.03;101601.73;106286;1272;25330;-55
2023/03/01 04:54:10;;;;;;;;;;;;;;;-5.71;78.17;101608.05;106388;1274;25530;-55
2023/03/01 04:56:39;;;;;;;;;;;;;;;-5.70;78.10;101611.05;106316;1278;26538;-57
2023/03/01 04:59:12;;;;;;;;;;;;;;;-5.72;77.64;101612.06;106578;1264;22503;-56
2023/03/01 05:01:42;;;;;;;;;;;;;;;-5.77;77.95;101613.09;106377;1278;22500;-57
2023/03/01 05:04:13;;;;;;;;;;;;;;;-5.78;77.95;101620.35;106264;1278;22498;-54
2023/03/01 05:06:42;;;;;;;;;;;;;;;-5.79;78.18;101615.52;106194;1272;25303;-56
2023/03/01 05:09:12;;;;;;;;;;;;;;;-5.80;78.08;101614.16;106256;1276;22622;-56
2023/03/01 05:11:41;;;;;;;;;;;;;;;-5.80;78.03;101610.80;106215;1264;22607;-55
2023/03/01 05:14:11;;;;;;;;;;;;;;;-5.86;77.87;101610.38;106849;1272;24251;-57
2023/03/01 05:16:40;;;;;;;;;;;;;;;-5.90;78.09;101607.16;106338;1278;22515;-57
2023/03/01 05:19:15;;;;;;;;;;;;;;;-5.90;78.40;101612.98;106628;1278;22626;-56
2023/03/01 05:24:31;;;;;;;;;;;;;;;-5.91;78.86;101614.64;106114;1278;22510;-59
2023/03/01 05:27:01;;;;;;;;;;;;;;;-5.90;78.94;101612.36;106405;1272;22555;-55
2023/03/01 05:29:34;;;;;;;;;;;;;;;-5.89;78.85;101617.19;106347;1278;22501;-56
2023/03/01 05:32:04;;;;;;;;;;;;;;;-5.89;78.85;101614.63;106498;1278;24254;-58
2023/03/01 05:34:35;;;;;;;;;;;;;;;-5.89;78.82;101611.42;106401;1278;22516;-57
2023/03/01 05:37:05;;;;;;;;;;;;;;;-5.87;78.67;101607.03;106233;1274;22511;-56
2023/03/01 05:39:34;;;;;;;;;;;;;;;-5.88;78.45;101608.77;106290;1278;22760;-57
2023/03/01 05:42:03;;;;;;;;;;;;;;;-5.90;78.33;101613.19;106290;1276;22574;-54
2023/03/01 05:44:32;;;;;;;;;;;;;;;-5.89;78.57;101616.52;106283;1278;25463;-62
2023/03/01 05:47:02;;;;;;;;;;;;;;;-5.86;78.67;101619.63;106322;1278;22490;-55
2023/03/01 05:49:41;;;;;;;;;;;;;;;-5.85;78.54;101620.13;106364;1278;24247;-56
2023/03/01 05:52:17;;;;;;;;;;;;;;;-5.85;78.57;101627.61;108566;1264;24023;-55
2023/03/01 05:54:46;;;;;;;;;;;;;;;-5.82;78.69;101622.93;106350;1278;22499;-56
2023/03/01 05:57:15;;;;;;;;;;;;;;;-5.80;78.66;101624.34;106307;1276;22550;-55
2023/03/01 05:59:46;;;;;;;;;;;;;;;-5.78;78.58;101627.09;106377;1273;22519;-55
2023/03/01 06:02:15;;;;;;;;;;;;;;;-5.76;78.61;101628.45;106328;1278;25440;-54
2023/03/01 06:04:44;;;;;;;;;;;;;;;-5.73;78.66;101629.45;106309;1278;22626;-57
2023/03/01 06:07:14;;;;;;;;;;;;;;;-5.72;78.60;101628.32;106330;1273;25388;-57
2023/03/01 06:09:44;;;;;;;;;;;;;;;-5.71;78.81;101630.39;106382;1277;22517;-54
2023/03/01 06:12:13;;;;;;;;;;;;;;;-5.68;78.92;101630.80;106512;1278;22501;-55
2023/03/01 06:14:42;;;;;;;;;;;;;;;-5.65;78.91;101632.52;106363;1278;22507;-56
2023/03/01 06:17:11;;;;;;;;;;;;;;;-5.63;78.93;101633.70;106478;1278;22508;-58
2023/03/01 06:19:40;;;;;;;;;;;;;;;-5.67;78.99;101629.35;106341;1270;22655;-58
2023/03/01 06:22:10;;;;;;;;;;;;;;;-5.69;79.27;101623.67;106320;1273;22521;-55
2023/03/01 06:24:39;;;;;;;;;;;;;;;-5.71;79.40;101619.11;106140;1263;24282;-55
2023/03/01 06:27:08;;;;;;;;;;;;;;;-5.70;79.48;101618.66;106291;1278;22489;-57
2023/03/01 06:29:37;;;;;;;;;;;;;;;-5.70;79.33;101613.70;106797;1278;22542;-57
2023/03/01 06:32:07;;;;;;;;;;;;;;;-5.71;79.50;101613.80;106271;1264;22527;-57
2023/03/01 06:34:37;;;;;;;;;;;;;;;-5.71;79.86;101612.81;106190;1278;22628;-54
2023/03/01 06:37:06;;;;;;;;;;;;;;;-5.70;80.04;101611.84;106167;1264;22737;-54
2023/03/01 06:39:36;;;;;;;;;;;;;;;-5.68;80.37;101606.16;106444;1276;22986;-57
2023/03/01 06:42:05;;;;;;;;;;;;;;;-5.65;80.76;101604.17;106350;1278;24390;-56
2023/03/01 06:44:35;;;;;;;;;;;;;;;-5.59;81.15;101600.62;106455;1271;24851;-56
2023/03/01 06:47:05;;;;;;;;;;;;;;;-5.55;81.34;101598.20;106396;1257;22518;-55
2023/03/01 06:49:34;;;;;;;;;;;;;;;-5.50;81.48;101591.29;106423;1278;22557;-58
2023/03/01 06:52:03;;;;;;;;;;;;;;;-5.45;81.70;101590.77;106418;1278;24216;-58
2023/03/01 06:54:32;;;;;;;;;;;;;;;-5.39;81.97;101595.41;106512;1267;22658;-57
2023/03/01 06:57:02;;;;;;;;;;;;;;;-5.33;82.18;101593.51;106477;1274;22514;-55
2023/03/01 06:59:31;;;;;;;;;;;;;;;-5.27;82.39;101595.55;106444;1264;22583;-55
2023/03/01 07:02:00;;;;;;;;;;;;;;;-5.20;82.70;101601.07;106418;1275;22630;-58
2023/03/01 07:04:30;;;;;;;;;;;;;;;-5.14;82.99;101604.70;106552;1272;25343;-57
2023/03/01 07:06:59;;;;;;;;;;;;;;;-5.07;83.33;101607.26;106559;1276;22506;-57
2023/03/01 07:09:29;;;;;;;;;;;;;;;-4.98;83.61;101613.16;106311;1273;25284;-57
2023/03/01 07:11:58;;;;;;;;;;;;;;;-4.86;84.22;101613.13;106331;1275;25354;-56
2023/03/01 07:14:28;;;;;;;;;;;;;;;-4.75;84.39;101619.39;106425;1274;25341;-56
2023/03/01 07:16:57;;;;;;;;;;;;;;;-4.64;84.52;101621.14;106491;1278;26373;-56
2023/03/01 07:19:26;;;;;;;;;;;;;;;-4.53;84.91;101620.45;106368;1275;25526;-56
2023/03/01 07:21:56;;;;;;;;;;;;;;;-4.41;85.20;101620.73;106338;1278;25462;-56
2023/03/01 07:24:25;;;;;;;;;;;;;;;-4.32;85.03;101618.85;106414;1278;22521;-56
2023/03/01 07:26:55;;;;;;;;;;;;;;;-4.23;84.93;101609.48;106345;1275;22510;-56
2023/03/01 07:29:24;;;;;;;;;;;;;;;-4.16;84.86;101613.54;106321;1278;25533;-59
2023/03/01 07:31:53;;;;;;;;;;;;;;;-4.07;85.09;101608.23;106382;1278;22505;-58
2023/03/01 07:34:22;;;;;;;;;;;;;;;-3.96;85.33;101600.52;106359;1274;22512;-58
2023/03/01 07:36:52;;;;;;;;;;;;;;;-3.86;85.49;101598.61;106361;1276;22514;-55
2023/03/01 07:39:22;;;;;;;;;;;;;;;-3.76;85.46;101595.83;106456;1278;24356;-55
2023/03/01 07:41:52;;;;;;;;;;;;;;;-3.67;85.67;101595.23;106346;1278;22498;-55
2023/03/01 07:44:21;;;;;;;;;;;;;;;-3.57;85.88;101595.10;106481;1278;26527;-54
2023/03/01 07:46:52;;;;;;;;;;;;;;;-3.47;85.91;101591.84;106288;1278;24390;-56
2023/03/01 07:49:21;;;;;;;;;;;;;;;-3.35;85.99;101595.02;106351;1270;22501;-56
2023/03/01 07:51:53;;;;;;;;;;;;;;;-3.24;85.89;101594.83;106331;1264;25280;-55
2023/03/01 07:54:23;;;;;;;;;;;;;;;-3.13;85.72;101597.73;106333;1278;22597;-55
2023/03/01 07:56:52;;;;;;;;;;;;;;;-3.03;85.51;101606.42;106359;1274;25339;-57
2023/03/01 07:59:23;;;;;;;;;;;;;;;-2.97;84.98;101599.06;106338;1278;22516;-57
2023/03/01 08:01:52;;;;;;;;;;;;;;;-2.92;84.97;101600.90;106251;1278;22503;-57
2023/03/01 08:04:21;;;;;;;;;;;;;;;-2.85;85.16;101593.90;106346;1272;24468;-55
2023/03/01 08:06:51;;;;;;;;;;;;;;;-2.76;85.51;101582.23;106304;1274;24285;-57
2023/03/01 08:09:20;;;;;;;;;;;;;;;-2.66;85.46;101579.63;106462;1274;24463;-55
2023/03/01 08:11:49;;;;;;;;;;;;;;;-2.57;85.38;101578.35;106278;1278;25415;-57
2023/03/01 08:14:18;;;;;;;;;;;;;;;-2.49;85.36;101576.89;106355;1272;24625;-56
2023/03/01 08:16:49;;;;;;;;;;;;;;;-2.39;85.23;101570.52;106288;1278;26753;-58
2023/03/01 08:19:18;;;;;;;;;;;;;;;-2.31;85.24;101572.42;106375;1278;23796;-57
2023/03/01 08:21:48;;;;;;;;;;;;;;;-2.23;84.96;101575.23;106288;1278;22640;-56
2023/03/01 08:24:17;;;;;;;;;;;;;;;-2.15;84.90;101575.86;106368;1277;26689;-55
2023/03/01 08:26:46;;;;;;;;;;;;;;;-2.03;85.37;101578.20;106352;1278;22591;-56
2023/03/01 08:29:15;;;;;;;;;;;;;;;-1.93;85.25;101573.16;106346;1278;24272;-56
2023/03/01 08:31:44;;;;;;;;;;;;;;;-1.85;85.02;101571.13;106387;1267;22510;-58
2023/03/01 08:34:15;;;;;;;;;;;;;;;-1.77;84.76;101569.55;106340;1278;25340;-55
2023/03/01 08:36:45;;;;;;;;;;;;;;;-1.70;84.71;101570.15;106335;1278;23566;-58
2023/03/01 08:39:15;;;;;;;;;;;;;;;-1.61;84.54;101572.58;106337;1278;22520;-57
2023/03/01 08:41:44;;;;;;;;;;;;;;;-1.53;84.45;101574.84;106389;1276;25329;-58
2023/03/01 08:44:16;;;;;;;;;;;;;;;-1.42;84.47;101576.89;106280;1278;25496;-58
2023/03/01 08:46:46;;;;;;;;;;;;;;;-1.32;84.57;101586.38;106260;1278;23951;-55
2023/03/01 08:49:16;;;;;;;;;;;;;;;-1.22;84.54;101590.23;106405;1278;24268;-58
2023/03/01 08:51:46;;;;;;;;;;;;;;;-1.12;83.83;101587.50;106311;1278;22749;-58
2023/03/01 08:54:17;;;;;;;;;;;;;;;-1.07;83.51;101590.70;106113;1271;209341;-57
2023/03/01 08:56:46;;;;;;;;;;;;;;;-1.03;83.48;101583.97;106478;1278;23024;-55
2023/03/01 08:59:16;;;;;;;;;;;;;;;-0.97;83.44;101585.86;106360;1278;22623;-58
2023/03/01 09:01:46;;;;;;;;;;;;;;;-0.93;82.79;101586.38;106569;1278;22512;-57
2023/03/01 09:04:15;;;;;;;;;;;;;;;-0.82;82.50;101580.36;106262;1263;22506;-58
2023/03/01 09:06:45;;;;;;;;;;;;;;;-0.75;82.14;101577.86;106613;1264;22505;-59
2023/03/01 09:09:16;;;;;;;;;;;;;;;-0.73;81.41;101574.77;106401;1264;22507;-55
2023/03/01 09:11:46;;;;;;;;;;;;;;;-0.69;81.43;101572.79;106357;1264;22502;-56
2023/03/01 09:14:15;;;;;;;;;;;;;;;-0.67;81.38;101573.28;106342;1264;26561;-57
2023/03/01 09:16:45;;;;;;;;;;;;;;;-0.65;80.82;101568.92;106367;1278;25223;-57
2023/03/01 09:19:14;;;;;;;;;;;;;;;-0.60;80.18;101568.44;106355;1271;24454;-57
2023/03/01 09:21:51;;;;;;;;;;;;;;;-0.54;80.10;101568.52;106336;1278;24208;-56
2023/03/01 09:24:22;;;;;;;;;;;;;;;-0.50;80.28;101570.00;106345;1278;24210;-56
2023/03/01 09:26:53;;;;;;;;;;;;;;;-0.45;80.24;101571.08;106293;1264;22508;-58
2023/03/01 09:29:23;;;;;;;;;;;;;;;-0.41;80.24;101569.48;106330;1271;22553;-56
2023/03/01 09:31:54;;;;;;;;;;;;;;;-0.35;79.38;101570.58;106391;1278;26125;-58
2023/03/01 09:34:24;;;;;;;;;;;;;;;-0.26;79.14;101566.70;106390;1263;24094;-56
2023/03/01 09:36:53;;;;;;;;;;;;;;;-0.21;78.78;101563.45;106338;1278;24461;-57
2023/03/01 09:39:23;;;;;;;;;;;;;;;-0.16;78.75;101565.02;106309;1275;25354;-57
2023/03/01 09:41:55;;;;;;;;;;;;;;;-0.12;78.51;101561.77;106462;1278;25335;-57
2023/03/01 09:44:33;;;;;;;;;;;;;;;-0.07;78.00;101563.48;106442;1278;25572;-57
2023/03/01 09:47:03;;;;;;;;;;;;;;;-0.03;77.92;101556.07;106401;1278;27281;-55
2023/03/01 09:49:34;;;;;;;;;;;;;;;0.05;78.00;101548.23;106520;1278;23122;-57
2023/03/01 09:52:06;;;;;;;;;;;;;;;0.12;77.55;101550.50;106360;1274;25327;-58
2023/03/01 09:54:35;;;;;;;;;;;;;;;0.17;77.76;101551.96;106416;1271;22657;-55
2023/03/01 09:57:10;;;;;;;;;;;;;;;0.21;77.92;101557.50;106391;1271;25335;-57
2023/03/01 09:59:48;;;;;;;;;;;;;;;0.27;77.81;101564.22;106425;1278;24385;-58
2023/03/01 10:02:25;;;;;;;;;;;;;;;0.34;77.60;101560.39;106374;1272;24326;-56
2023/03/01 10:04:56;;;;;;;;;;;;;;;0.43;77.40;101559.52;106350;1278;22623;-55
2023/03/01 10:07:33;;;;;;;;;;;;;;;0.50;76.92;101560.84;106369;1275;23790;-56
2023/03/01 10:10:05;;;;;;;;;;;;;;;0.55;76.79;101560.17;106357;1271;22635;-55
2023/03/01 10:12:36;;;;;;;;;;;;;;;0.60;76.41;101555.12;106202;1277;24403;-56
2023/03/01 10:15:10;;;;;;;;;;;;;;;0.66;76.34;101552.19;106422;1278;25202;-54
2023/03/01 10:17:43;;;;;;;;;;;;;;;0.73;76.26;101548.86;106675;1274;26575;-58
2023/03/01 10:20:22;;;;;;;;;;;;;;;0.80;76.18;101552.54;106500;1278;24313;-54
2023/03/01 10:22:52;;;;;;;;;;;;;;;0.85;75.77;101552.19;106365;1278;23505;-57
2023/03/01 10:25:27;;;;;;;;;;;;;;;0.90;75.85;101546.39;106357;1278;24247;-56
2023/03/01 10:28:02;;;;;;;;;;;;;;;0.97;75.91;101540.33;106277;1278;22507;-58
2023/03/01 10:30:35;;;;;;;;;;;;;;;1.05;76.01;101536.05;106178;1278;22629;-56
2023/03/01 10:33:11;;;;;;;;;;;;;;;1.10;75.73;101529.41;106308;1265;25356;-55
2023/03/01 10:35:40;;;;;;;;;;;;;;;1.15;75.53;101528.81;106443;1277;22621;-55
2023/03/01 10:38:11;;;;;;;;;;;;;;;1.19;74.58;101526.17;106343;1272;22512;-56
2023/03/01 10:40:51;;;;;;;;;;;;;;;1.23;75.13;101528.08;106368;1278;24391;-56
2023/03/01 10:43:20;;;;;;;;;;;;;;;1.26;74.86;101523.45;106343;1275;24388;-56
2023/03/01 10:45:50;;;;;;;;;;;;;;;1.34;75.02;101524.76;106402;1274;22518;-57
2023/03/01 10:48:23;;;;;;;;;;;;;;;1.41;74.60;101523.05;106381;1274;25520;-57
2023/03/01 10:51:05;;;;;;;;;;;;;;;1.46;74.63;101518.91;106397;1278;22523;-57
2023/03/01 10:53:36;;;;;;;;;;;;;;;1.48;73.71;101522.86;106386;1277;24433;-55
2023/03/01 10:56:07;;;;;;;;;;;;;;;1.52;73.59;101523.34;106407;1272;22586;-57
2023/03/01 10:58:37;;;;;;;;;;;;;;;1.55;73.20;101520.84;106445;1278;22528;-54
2023/03/01 11:01:07;;;;;;;;;;;;;;;1.64;73.69;101514.66;106319;1278;24230;-55
2023/03/01 11:03:37;;;;;;;;;;;;;;;1.70;72.89;101515.23;106367;1275;24991;-54
2023/03/01 11:06:20;;;;;;;;;;;;;;;1.77;73.29;101512.05;106331;1278;22503;-55
2023/03/01 11:08:50;;;;;;;;;;;;;;;1.77;72.21;101505.11;106423;1267;22558;-57
2023/03/01 11:11:25;;;;;;;;;;;;;;;1.80;72.58;101501.42;106511;1264;24216;-55
2023/03/01 11:13:59;;;;;;;;;;;;;;;1.78;72.11;101497.80;106238;1278;22501;-56
2023/03/01 11:16:30;;;;;;;;;;;;;;;1.77;72.15;101499.38;106555;1260;22584;-57
2023/03/01 11:19:01;;;;;;;;;;;;;;;1.78;72.37;101498.34;106308;1275;25282;-56
2023/03/01 11:21:32;;;;;;;;;;;;;;;1.80;72.02;101493.79;106376;1272;24236;-57
2023/03/01 11:24:02;;;;;;;;;;;;;;;1.86;71.53;101497.36;106341;1266;24353;-56
2023/03/01 11:26:37;;;;;;;;;;;;;;;1.90;71.36;101493.67;106344;1278;24217;-57
2023/03/01 11:29:08;;;;;;;;;;;;;;;1.96;71.11;101494.47;106430;1278;22584;-59
2023/03/01 11:31:38;;;;;;;;;;;;;;;2.02;71.32;101490.47;106438;1278;24217;-56
2023/03/01 11:34:13;;;;;;;;;;;;;;;2.05;70.68;101489.38;106326;1278;22560;-56
2023/03/01 11:36:45;;;;;;;;;;;;;;;2.12;70.32;101488.12;106432;1275;23953;-57
2023/03/01 11:39:21;;;;;;;;;;;;;;;2.17;70.59;101482.94;106378;1278;22626;-57
2023/03/01 11:41:53;;;;;;;;;;;;;;;2.17;70.79;101480.02;106354;1275;22530;-57
2023/03/01 11:44:26;;;;;;;;;;;;;;;2.16;70.90;101483.64;106357;1272;25261;-58
2023/03/01 11:47:08;;;;;;;;;;;;;;;2.16;70.45;101483.33;106278;1278;24249;-59
2023/03/01 11:49:47;;;;;;;;;;;;;;;2.21;70.21;101488.06;106305;1278;25377;-56
2023/03/01 11:52:23;;;;;;;;;;;;;;;2.27;69.76;101482.86;106278;1277;25234;-58
2023/03/01 11:54:56;;;;;;;;;;;;;;;2.33;69.89;101482.56;106356;1264;25245;-60
2023/03/01 11:57:36;;;;;;;;;;;;;;;2.35;70.17;101473.48;106335;1264;22629;-57
2023/03/01 12:00:16;;;;;;;;;;;;;;;2.37;69.80;101476.49;106261;1278;24938;-56
2023/03/01 12:02:56;;;;;;;;;;;;;;;2.47;70.04;101476.73;106306;1274;25320;-55
2023/03/01 12:05:39;;;;;;;;;;;;;;;2.55;69.33;101470.18;106324;1264;24979;-58
2023/03/01 12:08:11;;;;;;;;;;;;;;;2.61;69.59;101466.40;106401;1278;25392;-60
2023/03/01 12:10:45;;;;;;;;;;;;;;;2.66;70.07;101466.23;106390;1271;24253;-57
2023/03/01 12:13:24;;;;;;;;;;;;;;;2.70;70.09;101463.40;106362;1278;25344;-57
2023/03/01 12:16:05;;;;;;;;;;;;;;;2.76;69.70;101458.34;106277;1274;22637;-58
2023/03/01 12:18:42;;;;;;;;;;;;;;;2.80;68.95;101450.61;106298;1271;22520;-55
2023/03/01 12:21:19;;;;;;;;;;;;;;;2.80;68.06;101444.55;106259;1275;24229;-55
2023/03/01 12:24:02;;;;;;;;;;;;;;;2.79;67.64;101439.75;106313;1275;24218;-58
2023/03/01 12:26:34;;;;;;;;;;;;;;;2.79;67.46;101435.34;105891;1283;25344;-58
2023/03/01 12:29:17;;;;;;;;;;;;;;;2.82;66.01;101435.25;106008;1283;22708;-57
2023/03/01 12:31:56;;;;;;;;;;;;;;;2.88;65.83;101436.02;105911;1283;22528;-56
2023/03/01 12:34:43;;;;;;;;;;;;;;;2.88;65.38;101433.89;105911;1271;22517;-59
2023/03/01 12:37:23;;;;;;;;;;;;;;;2.86;65.30;101438.39;106572;1270;22555;-56
2023/03/01 12:39:58;;;;;;;;;;;;;;;2.90;64.05;101436.26;105952;1276;22529;-57
2023/03/01 12:42:31;;;;;;;;;;;;;;;2.98;64.49;101433.55;105953;1271;22504;-59
2023/03/01 12:45:14;;;;;;;;;;;;;;;3.06;63.50;101424.54;105877;1271;22511;-55
2023/03/01 12:48:04;;;;;;;;;;;;;;;3.17;62.61;101416.70;105923;1276;22499;-56
2023/03/01 12:50:38;;;;;;;;;;;;;;;3.26;62.91;101413.12;106021;1275;22507;-57
2023/03/01 12:53:13;;;;;;;;;;;;;;;3.25;63.08;101408.39;106133;1277;26474;-58